Gavdos, Greece
Current Conditions -  °F | °C
As of 10:20 PM on Friday 28 Nov 2014 (Local Time) from LGSA Reporting Station
Broken Clouds Broken Clouds  
Wind Chill: 61°   Ceiling: 18000
Heat Index: 61°   Visibility: 6mi
Dew Point: 57°   Wind: 5mph
Humidity: 88%   Direction: 120°ESE
Pressure: 30.21"   Gusts: NA
Location:  34.84°N, 24.09°E
Report Text: LGSA 281920Z 12004KT 9999 FEW020 BKN180 16/14 Q1023
Loading
Personal Weather Stations






























Interactive Weather Map New forecast layout! Learn more

10-Day Weather Forecast

Advertisements
Track Severe Weather on mobile